sensor_id;sensor_type;location;lat;lon;timestamp;pressure;altitude;pressure_sealevel;temperature;humidity
47430;BME280;33181;49.246;7.372;2023-06-14T00:00:58;98368.00;;;17.98;51.31
47430;BME280;33181;49.246;7.372;2023-06-14T00:03:24;98367.53;;;17.95;51.69
47430;BME280;33181;49.246;7.372;2023-06-14T00:05:53;98372.19;;;17.93;51.80
47430;BME280;33181;49.246;7.372;2023-06-14T00:08:19;98372.75;;;17.88;51.85
47430;BME280;33181;49.246;7.372;2023-06-14T00:10:47;98369.44;;;17.86;51.81
47430;BME280;33181;49.246;7.372;2023-06-14T00:13:13;98369.13;;;17.81;51.76
47430;BME280;33181;49.246;7.372;2023-06-14T00:15:40;98365.34;;;17.75;52.02
47430;BME280;33181;49.246;7.372;2023-06-14T00:18:06;98369.19;;;17.73;52.01
47430;BME280;33181;49.246;7.372;2023-06-14T00:20:33;98369.25;;;17.65;52.06
47430;BME280;33181;49.246;7.372;2023-06-14T00:23:00;98366.78;;;17.63;52.34
47430;BME280;33181;49.246;7.372;2023-06-14T00:25:26;98366.59;;;17.65;52.46
47430;BME280;33181;49.246;7.372;2023-06-14T00:27:54;98367.59;;;17.64;52.57
47430;BME280;33181;49.246;7.372;2023-06-14T00:30:20;98364.00;;;17.56;52.59
47430;BME280;33181;49.246;7.372;2023-06-14T00:32:47;98367.03;;;17.53;52.62
47430;BME280;33181;49.246;7.372;2023-06-14T00:35:14;98362.06;;;17.50;52.74
47430;BME280;33181;49.246;7.372;2023-06-14T00:37:39;98363.91;;;17.50;52.85
47430;BME280;33181;49.246;7.372;2023-06-14T00:40:06;98367.53;;;17.49;53.06
47430;BME280;33181;49.246;7.372;2023-06-14T00:42:32;98369.56;;;17.47;52.93
47430;BME280;33181;49.246;7.372;2023-06-14T00:45:00;98373.75;;;17.41;53.17
47430;BME280;33181;49.246;7.372;2023-06-14T00:47:26;98376.75;;;17.38;53.07
47430;BME280;33181;49.246;7.372;2023-06-14T00:49:53;98370.97;;;17.34;53.41
47430;BME280;33181;49.246;7.372;2023-06-14T00:52:22;98375.47;;;17.34;53.61
47430;BME280;33181;49.246;7.372;2023-06-14T00:54:50;98378.13;;;17.34;53.44
47430;BME280;33181;49.246;7.372;2023-06-14T00:57:16;98384.16;;;17.20;53.48
47430;BME280;33181;49.246;7.372;2023-06-14T00:59:48;98381.38;;;17.13;53.90
47430;BME280;33181;49.246;7.372;2023-06-14T01:02:15;98388.53;;;17.12;54.01
47430;BME280;33181;49.246;7.372;2023-06-14T01:04:44;98387.53;;;17.13;54.34
47430;BME280;33181;49.246;7.372;2023-06-14T01:13:39;98394.63;;;16.90;54.71
47430;BME280;33181;49.246;7.372;2023-06-14T01:16:08;98391.31;;;16.80;54.85
47430;BME280;33181;49.246;7.372;2023-06-14T01:18:35;98392.31;;;16.79;55.19
47430;BME280;33181;49.246;7.372;2023-06-14T01:21:01;98392.50;;;16.77;55.28
47430;BME280;33181;49.246;7.372;2023-06-14T01:23:31;98392.31;;;16.79;55.23
47430;BME280;33181;49.246;7.372;2023-06-14T01:25:59;98398.47;;;16.79;55.08
47430;BME280;33181;49.246;7.372;2023-06-14T01:28:27;98402.47;;;16.75;54.90
47430;BME280;33181;49.246;7.372;2023-06-14T01:31:02;98394.53;;;16.51;55.28
47430;BME280;33181;49.246;7.372;2023-06-14T01:33:32;98394.75;;;16.33;55.77
47430;BME280;33181;49.246;7.372;2023-06-14T01:36:00;98397.97;;;16.12;56.64
47430;BME280;33181;49.246;7.372;2023-06-14T01:38:27;98398.97;;;15.86;57.34
47430;BME280;33181;49.246;7.372;2023-06-14T01:40:56;98402.59;;;15.69;57.87
47430;BME280;33181;49.246;7.372;2023-06-14T01:43:24;98399.25;;;15.59;58.46
47430;BME280;33181;49.246;7.372;2023-06-14T01:45:51;98405.19;;;15.52;58.62
47430;BME280;33181;49.246;7.372;2023-06-14T01:48:17;98404.72;;;15.49;59.07
47430;BME280;33181;49.246;7.372;2023-06-14T01:50:43;98404.06;;;15.55;59.00
47430;BME280;33181;49.246;7.372;2023-06-14T01:53:10;98402.88;;;15.66;58.76
47430;BME280;33181;49.246;7.372;2023-06-14T01:55:36;98402.44;;;15.70;58.44
47430;BME280;33181;49.246;7.372;2023-06-14T01:58:10;98406.41;;;15.74;58.41
47430;BME280;33181;49.246;7.372;2023-06-14T02:00:36;98399.97;;;15.77;58.18
47430;BME280;33181;49.246;7.372;2023-06-14T02:03:02;98400.59;;;15.79;57.88
47430;BME280;33181;49.246;7.372;2023-06-14T02:05:31;98401.13;;;15.83;58.13
47430;BME280;33181;49.246;7.372;2023-06-14T02:07:57;98395.47;;;15.69;58.09
47430;BME280;33181;49.246;7.372;2023-06-14T02:10:23;98401.56;;;15.62;58.09
47430;BME280;33181;49.246;7.372;2023-06-14T02:12:49;98410.66;;;15.59;58.23
47430;BME280;33181;49.246;7.372;2023-06-14T02:15:15;98405.88;;;15.63;58.25
47430;BME280;33181;49.246;7.372;2023-06-14T02:17:46;98407.25;;;15.67;58.40
47430;BME280;33181;49.246;7.372;2023-06-14T02:20:15;98405.25;;;15.69;58.37
47430;BME280;33181;49.246;7.372;2023-06-14T02:22:41;98405.53;;;15.66;58.03
47430;BME280;33181;49.246;7.372;2023-06-14T02:25:08;98417.47;;;15.62;58.18
47430;BME280;33181;49.246;7.372;2023-06-14T02:27:35;98417.47;;;15.62;58.40
47430;BME280;33181;49.246;7.372;2023-06-14T02:30:01;98405.53;;;15.66;58.47
47430;BME280;33181;49.246;7.372;2023-06-14T02:32:27;98410.72;;;15.67;58.62
47430;BME280;33181;49.246;7.372;2023-06-14T02:34:56;98409.72;;;15.68;58.20
47430;BME280;33181;49.246;7.372;2023-06-14T02:37:22;98414.31;;;15.66;58.55
47430;BME280;33181;49.246;7.372;2023-06-14T02:39:48;98413.00;;;15.62;58.47
47430;BME280;33181;49.246;7.372;2023-06-14T02:42:14;98414.31;;;15.58;58.54
47430;BME280;33181;49.246;7.372;2023-06-14T02:44:40;98418.94;;;15.56;58.73
47430;BME280;33181;49.246;7.372;2023-06-14T02:47:06;98419.63;;;15.58;58.72
47430;BME280;33181;49.246;7.372;2023-06-14T02:49:32;98413.16;;;15.61;59.05
47430;BME280;33181;49.246;7.372;2023-06-14T02:51:57;98419.78;;;15.65;58.73
47430;BME280;33181;49.246;7.372;2023-06-14T02:54:23;98419.78;;;15.65;58.65
47430;BME280;33181;49.246;7.372;2023-06-14T02:56:49;98420.78;;;15.64;58.72
47430;BME280;33181;49.246;7.372;2023-06-14T02:59:15;98417.47;;;15.62;58.44
47430;BME280;33181;49.246;7.372;2023-06-14T03:01:42;98414.97;;;15.60;58.68
47430;BME280;33181;49.246;7.372;2023-06-14T03:04:09;98416.13;;;15.58;58.85
47430;BME280;33181;49.246;7.372;2023-06-14T03:06:35;98420.44;;;15.59;58.79
47430;BME280;33181;49.246;7.372;2023-06-14T03:09:02;98424.09;;;15.58;58.79
47430;BME280;33181;49.246;7.372;2023-06-14T03:11:31;98421.59;;;15.56;58.78
47430;BME280;33181;49.246;7.372;2023-06-14T03:13:57;98416.28;;;15.56;58.87
47430;BME280;33181;49.246;7.372;2023-06-14T03:16:23;98420.41;;;15.50;58.71
47430;BME280;33181;49.246;7.372;2023-06-14T03:18:53;98429.00;;;15.44;58.72
47430;BME280;33181;49.246;7.372;2023-06-14T03:21:19;98425.72;;;15.42;59.17
47430;BME280;33181;49.246;7.372;2023-06-14T03:23:48;98425.53;;;15.44;59.30
47430;BME280;33181;49.246;7.372;2023-06-14T03:26:15;98427.34;;;15.43;59.21
47430;BME280;33181;49.246;7.372;2023-06-14T03:28:47;98426.53;;;15.43;59.13
47430;BME280;33181;49.246;7.372;2023-06-14T03:31:15;98431.31;;;15.39;59.42
47430;BME280;33181;49.246;7.372;2023-06-14T03:33:41;98427.19;;;15.37;59.61
47430;BME280;33181;49.246;7.372;2023-06-14T03:36:08;98425.50;;;15.27;59.47
47430;BME280;33181;49.246;7.372;2023-06-14T03:38:34;98427.66;;;15.24;59.89
47430;BME280;33181;49.246;7.372;2023-06-14T03:41:00;98436.59;;;15.23;59.83
47430;BME280;33181;49.246;7.372;2023-06-14T03:43:27;98438.09;;;15.34;59.97
47430;BME280;33181;49.246;7.372;2023-06-14T03:45:53;98443.25;;;15.51;59.73
47430;BME280;33181;49.246;7.372;2023-06-14T03:48:18;98440.34;;;15.79;59.07
47430;BME280;33181;49.246;7.372;2023-06-14T03:50:44;98449.13;;;16.12;58.11
47430;BME280;33181;49.246;7.372;2023-06-14T03:53:11;98438.31;;;16.47;56.92
47430;BME280;33181;49.246;7.372;2023-06-14T03:55:37;98445.56;;;16.77;55.97
47430;BME280;33181;49.246;7.372;2023-06-14T03:58:03;98454.06;;;17.12;55.00
47430;BME280;33181;49.246;7.372;2023-06-14T04:00:29;98450.22;;;17.46;53.72
47430;BME280;33181;49.246;7.372;2023-06-14T04:02:55;98446.03;;;17.82;53.07
47430;BME280;33181;49.246;7.372;2023-06-14T04:05:21;98452.75;;;18.31;51.80
47430;BME280;33181;49.246;7.372;2023-06-14T04:07:52;98446.97;;;18.80;50.44
47430;BME280;33181;49.246;7.372;2023-06-14T04:10:18;98449.00;;;19.29;49.13
47430;BME280;33181;49.246;7.372;2023-06-14T04:12:45;98451.22;;;19.77;47.74
47430;BME280;33181;49.246;7.372;2023-06-14T04:15:11;98453.72;;;20.28;46.67
47430;BME280;33181;49.246;7.372;2023-06-14T04:17:37;98460.81;;;20.70;45.53
47430;BME280;33181;49.246;7.372;2023-06-14T04:20:05;98462.72;;;21.24;44.47
47430;BME280;33181;49.246;7.372;2023-06-14T04:22:34;98471.53;;;21.60;43.53
47430;BME280;33181;49.246;7.372;2023-06-14T04:25:00;98463.78;;;21.91;42.81
47430;BME280;33181;49.246;7.372;2023-06-14T04:27:26;98467.94;;;22.40;42.14
47430;BME280;33181;49.246;7.372;2023-06-14T04:29:54;98470.19;;;22.77;41.28
47430;BME280;33181;49.246;7.372;2023-06-14T04:32:29;98474.00;;;23.21;40.34
47430;BME280;33181;49.246;7.372;2023-06-14T04:35:06;98468.31;;;23.49;40.18
47430;BME280;33181;49.246;7.372;2023-06-14T04:37:32;98478.31;;;23.67;39.69
47430;BME280;33181;49.246;7.372;2023-06-14T04:39:58;98477.22;;;23.43;40.02
47430;BME280;33181;49.246;7.372;2023-06-14T04:42:25;98478.75;;;23.19;40.41
47430;BME280;33181;49.246;7.372;2023-06-14T04:44:56;98476.97;;;22.86;40.86
47430;BME280;33181;49.246;7.372;2023-06-14T04:47:23;98484.00;;;22.60;41.34
47430;BME280;33181;49.246;7.372;2023-06-14T04:49:56;98484.81;;;22.34;41.46
47430;BME280;33181;49.246;7.372;2023-06-14T04:52:22;98485.63;;;22.08;42.30
47430;BME280;33181;49.246;7.372;2023-06-14T04:54:48;98490.13;;;22.01;42.54
47430;BME280;33181;49.246;7.372;2023-06-14T04:57:14;98492.75;;;21.88;42.84
47430;BME280;33181;49.246;7.372;2023-06-14T04:59:43;98493.19;;;21.85;43.43
47430;BME280;33181;49.246;7.372;2023-06-14T05:02:10;98493.41;;;21.90;43.22
47430;BME280;33181;49.246;7.372;2023-06-14T05:04:38;98499.16;;;21.87;43.32
47430;BME280;33181;49.246;7.372;2023-06-14T05:07:08;98493.81;;;21.93;43.14
47430;BME280;33181;49.246;7.372;2023-06-14T05:09:35;98491.38;;;22.05;43.29
47430;BME280;33181;49.246;7.372;2023-06-14T05:12:02;98491.81;;;22.22;43.17
47430;BME280;33181;49.246;7.372;2023-06-14T05:14:28;98491.81;;;22.29;42.56
47430;BME280;33181;49.246;7.372;2023-06-14T05:16:54;98484.41;;;22.31;42.67
47430;BME280;33181;49.246;7.372;2023-06-14T05:19:20;98499.66;;;22.17;43.18
47430;BME280;33181;49.246;7.372;2023-06-14T05:21:48;98494.09;;;22.18;42.94
47430;BME280;33181;49.246;7.372;2023-06-14T05:24:14;98501.28;;;22.18;43.23
47430;BME280;33181;49.246;7.372;2023-06-14T05:26:40;98494.31;;;22.24;43.09
47430;BME280;33181;49.246;7.372;2023-06-14T05:29:06;98497.56;;;22.26;43.20
47430;BME280;33181;49.246;7.372;2023-06-14T05:31:32;98503.97;;;22.38;43.18
47430;BME280;33181;49.246;7.372;2023-06-14T05:33:58;98503.34;;;22.56;43.28
47430;BME280;33181;49.246;7.372;2023-06-14T05:36:24;98502.31;;;22.70;42.97
47430;BME280;33181;49.246;7.372;2023-06-14T05:38:51;98504.34;;;22.88;42.91
47430;BME280;33181;49.246;7.372;2023-06-14T05:41:17;98497.75;;;23.04;42.33
47430;BME280;33181;49.246;7.372;2023-06-14T05:43:42;98502.25;;;23.17;42.42
47430;BME280;33181;49.246;7.372;2023-06-14T05:46:08;98505.06;;;23.35;42.28
47430;BME280;33181;49.246;7.372;2023-06-14T05:48:36;98505.66;;;23.44;41.94
47430;BME280;33181;49.246;7.372;2023-06-14T05:51:02;98509.09;;;23.57;41.63
47430;BME280;33181;49.246;7.372;2023-06-14T05:53:28;98509.09;;;23.71;42.22
47430;BME280;33181;49.246;7.372;2023-06-14T05:55:54;98510.09;;;23.70;41.09
47430;BME280;33181;49.246;7.372;2023-06-14T05:58:22;98501.91;;;23.51;40.70
47430;BME280;33181;49.246;7.372;2023-06-14T06:00:48;98509.84;;;23.20;40.51
47430;BME280;33181;49.246;7.372;2023-06-14T06:03:14;98520.84;;;22.72;41.06
47430;BME280;33181;49.246;7.372;2023-06-14T06:05:40;98514.47;;;22.46;41.91
47430;BME280;33181;49.246;7.372;2023-06-14T06:08:06;98519.06;;;21.78;42.20
47430;BME280;33181;49.246;7.372;2023-06-14T06:10:33;98520.69;;;21.65;43.05
47430;BME280;33181;49.246;7.372;2023-06-14T06:13:00;98516.50;;;21.49;43.23
47430;BME280;33181;49.246;7.372;2023-06-14T06:15:27;98522.66;;;21.43;43.51
47430;BME280;33181;49.246;7.372;2023-06-14T06:17:55;98521.53;;;21.31;43.09
47430;BME280;33181;49.246;7.372;2023-06-14T06:20:21;98530.41;;;20.97;44.20
47430;BME280;33181;49.246;7.372;2023-06-14T06:22:53;98526.59;;;21.13;44.60
47430;BME280;33181;49.246;7.372;2023-06-14T06:25:19;98531.00;;;21.34;43.50
47430;BME280;33181;49.246;7.372;2023-06-14T06:27:45;98523.03;;;21.05;43.74
47430;BME280;33181;49.246;7.372;2023-06-14T06:30:15;98533.38;;;21.15;44.33
47430;BME280;33181;49.246;7.372;2023-06-14T06:32:41;98524.47;;;21.01;43.88
47430;BME280;33181;49.246;7.372;2023-06-14T06:35:08;98537.34;;;20.91;43.75
47430;BME280;33181;49.246;7.372;2023-06-14T06:37:37;98535.19;;;21.08;43.40
47430;BME280;33181;49.246;7.372;2023-06-14T06:40:03;98532.56;;;21.15;43.54
47430;BME280;33181;49.246;7.372;2023-06-14T06:42:32;98543.34;;;20.93;43.55
47430;BME280;33181;49.246;7.372;2023-06-14T06:44:58;98540.97;;;21.12;43.57
47430;BME280;33181;49.246;7.372;2023-06-14T06:47:24;98539.28;;;21.39;43.51
47430;BME280;33181;49.246;7.372;2023-06-14T06:49:50;98545.13;;;21.56;42.78
47430;BME280;33181;49.246;7.372;2023-06-14T06:52:16;98543.34;;;21.28;42.91
47430;BME280;33181;49.246;7.372;2023-06-14T06:54:42;98541.63;;;21.20;43.46
47430;BME280;33181;49.246;7.372;2023-06-14T06:57:08;98546.72;;;21.50;43.51
47430;BME280;33181;49.246;7.372;2023-06-14T06:59:35;98547.38;;;21.52;43.01
47430;BME280;33181;49.246;7.372;2023-06-14T07:02:01;98546.97;;;21.55;43.09
47430;BME280;33181;49.246;7.372;2023-06-14T07:04:27;98552.75;;;21.65;43.73
47430;BME280;33181;49.246;7.372;2023-06-14T07:06:53;98550.75;;;21.74;43.40
47430;BME280;33181;49.246;7.372;2023-06-14T07:09:19;98560.94;;;22.12;42.22
47430;BME280;33181;49.246;7.372;2023-06-14T07:11:47;98560.38;;;22.30;42.46
47430;BME280;33181;49.246;7.372;2023-06-14T07:14:13;98561.63;;;22.47;41.85
47430;BME280;33181;49.246;7.372;2023-06-14T07:16:39;98553.22;;;22.70;42.06
47430;BME280;33181;49.246;7.372;2023-06-14T07:19:06;98557.31;;;22.99;41.20
47430;BME280;33181;49.246;7.372;2023-06-14T07:21:32;98551.31;;;23.24;40.50
47430;BME280;33181;49.246;7.372;2023-06-14T07:23:58;98547.94;;;23.42;40.02
47430;BME280;33181;49.246;7.372;2023-06-14T07:26:24;98548.47;;;23.70;39.96
47430;BME280;33181;49.246;7.372;2023-06-14T07:28:51;98549.78;;;23.48;39.15
47430;BME280;33181;49.246;7.372;2023-06-14T07:31:17;98560.34;;;23.36;39.40
47430;BME280;33181;49.246;7.372;2023-06-14T07:33:45;98559.34;;;23.10;40.04
47430;BME280;33181;49.246;7.372;2023-06-14T07:36:11;98566.19;;;23.00;39.77
47430;BME280;33181;49.246;7.372;2023-06-14T07:38:37;98567.63;;;23.02;40.07
47430;BME280;33181;49.246;7.372;2023-06-14T07:41:03;98560.97;;;23.31;40.16
47430;BME280;33181;49.246;7.372;2023-06-14T07:43:29;98570.84;;;23.38;39.33
47430;BME280;33181;49.246;7.372;2023-06-14T07:45:55;98567.41;;;23.17;40.51
47430;BME280;33181;49.246;7.372;2023-06-14T07:48:22;98567.72;;;23.47;39.38
47430;BME280;33181;49.246;7.372;2023-06-14T07:50:48;98566.22;;;23.71;39.76
47430;BME280;33181;49.246;7.372;2023-06-14T07:53:14;98566.44;;;23.70;39.07
47430;BME280;33181;49.246;7.372;2023-06-14T07:55:40;98562.19;;;23.35;39.56
47430;BME280;33181;49.246;7.372;2023-06-14T07:58:08;98572.03;;;23.55;39.40
47430;BME280;33181;49.246;7.372;2023-06-14T08:00:34;98563.03;;;23.36;40.09
47430;BME280;33181;49.246;7.372;2023-06-14T08:03:00;98564.66;;;23.37;39.49
47430;BME280;33181;49.246;7.372;2023-06-14T08:05:27;98571.72;;;23.18;40.05
47430;BME280;33181;49.246;7.372;2023-06-14T08:07:53;98570.66;;;23.26;39.98
47430;BME280;33181;49.246;7.372;2023-06-14T08:10:22;98577.41;;;23.48;39.60
47430;BME280;33181;49.246;7.372;2023-06-14T08:12:49;98570.16;;;23.62;40.48
47430;BME280;33181;49.246;7.372;2023-06-14T08:15:18;98566.66;;;23.62;39.56
47430;BME280;33181;49.246;7.372;2023-06-14T08:17:44;98569.13;;;23.56;39.03
47430;BME280;33181;49.246;7.372;2023-06-14T08:20:11;98570.97;;;23.69;39.61
47430;BME280;33181;49.246;7.372;2023-06-14T08:22:38;98570.31;;;23.80;39.38
47430;BME280;33181;49.246;7.372;2023-06-14T08:25:05;98563.75;;;24.40;38.40
47430;BME280;33181;49.246;7.372;2023-06-14T08:27:32;98572.56;;;24.22;37.94
47430;BME280;33181;49.246;7.372;2023-06-14T08:29:58;98571.41;;;24.36;37.64
47430;BME280;33181;49.246;7.372;2023-06-14T08:32:24;98578.72;;;24.29;37.30
47430;BME280;33181;49.246;7.372;2023-06-14T08:34:50;98573.94;;;23.93;37.53
47430;BME280;33181;49.246;7.372;2023-06-14T08:37:16;98567.72;;;24.05;37.58
47430;BME280;33181;49.246;7.372;2023-06-14T08:39:42;98569.97;;;24.09;36.93
47430;BME280;33181;49.246;7.372;2023-06-14T08:42:09;98573.81;;;23.81;37.80
47430;BME280;33181;49.246;7.372;2023-06-14T08:44:36;98568.69;;;23.73;37.60
47430;BME280;33181;49.246;7.372;2023-06-14T08:47:02;98574.00;;;23.79;37.87
47430;BME280;33181;49.246;7.372;2023-06-14T08:49:31;98569.97;;;24.02;37.63
47430;BME280;33181;49.246;7.372;2023-06-14T08:51:59;98573.97;;;23.86;36.45
47430;BME280;33181;49.246;7.372;2023-06-14T08:54:28;98575.25;;;23.84;37.41
47430;BME280;33181;49.246;7.372;2023-06-14T08:56:59;98573.78;;;24.26;36.78
47430;BME280;33181;49.246;7.372;2023-06-14T08:59:26;98561.91;;;24.40;36.92
47430;BME280;33181;49.246;7.372;2023-06-14T09:01:53;98572.84;;;24.39;36.63
47430;BME280;33181;49.246;7.372;2023-06-14T09:04:21;98573.09;;;24.37;37.03
47430;BME280;33181;49.246;7.372;2023-06-14T09:06:55;98568.66;;;24.56;36.63
47430;BME280;33181;49.246;7.372;2023-06-14T09:09:22;98559.47;;;24.64;36.23
47430;BME280;33181;49.246;7.372;2023-06-14T09:11:55;98571.16;;;24.76;35.83
47430;BME280;33181;49.246;7.372;2023-06-14T09:14:24;98566.22;;;24.48;36.45
47430;BME280;33181;49.246;7.372;2023-06-14T09:16:54;98568.28;;;24.71;36.13
47430;BME280;33181;49.246;7.372;2023-06-14T09:19:24;98570.03;;;24.84;36.34
47430;BME280;33181;49.246;7.372;2023-06-14T09:21:50;98564.06;;;25.32;35.85
47430;BME280;33181;49.246;7.372;2023-06-14T09:24:19;98574.88;;;25.00;34.99
47430;BME280;33181;49.246;7.372;2023-06-14T09:26:47;98572.84;;;24.70;35.88
47430;BME280;33181;49.246;7.372;2023-06-14T09:29:13;98579.16;;;24.83;35.60
47430;BME280;33181;49.246;7.372;2023-06-14T09:31:39;98580.59;;;24.85;34.49
47430;BME280;33181;49.246;7.372;2023-06-14T09:34:05;98584.28;;;24.91;34.44
47430;BME280;33181;49.246;7.372;2023-06-14T09:36:32;98571.84;;;24.90;33.79
47430;BME280;33181;49.246;7.372;2023-06-14T09:39:00;98589.22;;;24.94;34.47
47430;BME280;33181;49.246;7.372;2023-06-14T09:41:38;98595.34;;;25.01;33.45
47430;BME280;33181;49.246;7.372;2023-06-14T09:44:07;98590.78;;;25.02;33.92
47430;BME280;33181;49.246;7.372;2023-06-14T09:46:34;98592.41;;;25.03;34.07
47430;BME280;33181;49.246;7.372;2023-06-14T09:49:02;98593.72;;;24.93;34.65
47430;BME280;33181;49.246;7.372;2023-06-14T09:51:29;98592.34;;;25.16;34.45
47430;BME280;33181;49.246;7.372;2023-06-14T09:54:03;98589.97;;;25.26;34.54
47430;BME280;33181;49.246;7.372;2023-06-14T09:56:37;98601.22;;;25.53;34.32
47430;BME280;33181;49.246;7.372;2023-06-14T09:59:05;98596.16;;;25.45;33.76
47430;BME280;33181;49.246;7.372;2023-06-14T10:01:34;98588.31;;;25.80;33.30
47430;BME280;33181;49.246;7.372;2023-06-14T10:04:04;98593.16;;;25.53;33.24
47430;BME280;33181;49.246;7.372;2023-06-14T10:06:31;98592.66;;;25.45;33.42
47430;BME280;33181;49.246;7.372;2023-06-14T10:08:59;98596.53;;;25.30;33.43
47430;BME280;33181;49.246;7.372;2023-06-14T10:11:29;98587.50;;;25.61;33.47
47430;BME280;33181;49.246;7.372;2023-06-14T10:13:55;98581.91;;;25.81;33.21
47430;BME280;33181;49.246;7.372;2023-06-14T10:19:11;98584.28;;;26.50;31.80
47430;BME280;33181;49.246;7.372;2023-06-14T10:22:22;98584.94;;;26.87;32.17
47430;BME280;33181;49.246;7.372;2023-06-14T10:24:45;98593.63;;;26.89;31.91
47430;BME280;33181;49.246;7.372;2023-06-14T10:27:15;98581.88;;;26.84;31.54
47430;BME280;33181;49.246;7.372;2023-06-14T10:32:20;98588.94;;;26.43;31.06
47430;BME280;33181;49.246;7.372;2023-06-14T10:34:56;98584.00;;;26.40;32.27
47430;BME280;33181;49.246;7.372;2023-06-14T10:37:22;98596.13;;;26.49;31.69
47430;BME280;33181;49.246;7.372;2023-06-14T10:39:50;98587.97;;;26.79;30.83
47430;BME280;33181;49.246;7.372;2023-06-14T10:42:17;98592.66;;;26.30;30.62
47430;BME280;33181;49.246;7.372;2023-06-14T10:44:53;98591.88;;;26.11;30.45
47430;BME280;33181;49.246;7.372;2023-06-14T10:47:28;98582.38;;;26.08;31.49
47430;BME280;33181;49.246;7.372;2023-06-14T10:52:28;98586.09;;;26.79;31.54
47430;BME280;33181;49.246;7.372;2023-06-14T10:57:27;98600.38;;;26.68;31.88
47430;BME280;33181;49.246;7.372;2023-06-14T10:59:54;98583.19;;;26.39;33.19
47430;BME280;33181;49.246;7.372;2023-06-14T11:05:15;98581.66;;;27.20;32.72
47430;BME280;33181;49.246;7.372;2023-06-14T11:10:39;98589.72;;;26.73;32.47
47430;BME280;33181;49.246;7.372;2023-06-14T11:13:07;98593.44;;;26.61;32.60
47430;BME280;33181;49.246;7.372;2023-06-14T11:15:36;98588.53;;;26.69;30.24
47430;BME280;33181;49.246;7.372;2023-06-14T11:18:04;98579.09;;;27.02;30.68
47430;BME280;33181;49.246;7.372;2023-06-14T11:20:33;98591.72;;;27.13;31.08
47430;BME280;33181;49.246;7.372;2023-06-14T11:23:01;98593.25;;;26.74;31.12
47430;BME280;33181;49.246;7.372;2023-06-14T11:25:27;98596.31;;;26.89;30.86
47430;BME280;33181;49.246;7.372;2023-06-14T11:27:56;98593.81;;;26.64;30.69
47430;BME280;33181;49.246;7.372;2023-06-14T11:30:23;98598.41;;;26.87;30.54
47430;BME280;33181;49.246;7.372;2023-06-14T11:32:53;98590.06;;;26.89;30.85
47430;BME280;33181;49.246;7.372;2023-06-14T11:35:22;98591.13;;;27.11;30.00
47430;BME280;33181;49.246;7.372;2023-06-14T11:37:55;98583.41;;;27.50;30.04
47430;BME280;33181;49.246;7.372;2023-06-14T11:40:25;98582.38;;;27.91;30.11
47430;BME280;33181;49.246;7.372;2023-06-14T11:43:01;98580.44;;;28.32;29.36
47430;BME280;33181;49.246;7.372;2023-06-14T11:45:29;98569.69;;;28.83;28.51
47430;BME280;33181;49.246;7.372;2023-06-14T11:47:56;98581.50;;;29.10;29.29
47430;BME280;33181;49.246;7.372;2023-06-14T11:50:23;98582.41;;;28.82;28.23
47430;BME280;33181;49.246;7.372;2023-06-14T11:53:00;98565.00;;;28.95;28.98
47430;BME280;33181;49.246;7.372;2023-06-14T11:55:38;98577.97;;;28.76;28.61
47430;BME280;33181;49.246;7.372;2023-06-14T11:58:06;98575.13;;;27.80;29.12
47430;BME280;33181;49.246;7.372;2023-06-14T12:00:32;98579.88;;;26.67;30.16
47430;BME280;33181;49.246;7.372;2023-06-14T12:02:58;98591.97;;;26.46;30.16
47430;BME280;33181;49.246;7.372;2023-06-14T12:05:25;98593.72;;;26.41;31.14
47430;BME280;33181;49.246;7.372;2023-06-14T12:08:03;98586.00;;;26.44;30.40
47430;BME280;33181;49.246;7.372;2023-06-14T12:10:29;98586.16;;;26.49;30.66
47430;BME280;33181;49.246;7.372;2023-06-14T12:12:59;98579.06;;;26.37;31.43
47430;BME280;33181;49.246;7.372;2023-06-14T12:15:28;98581.59;;;26.50;31.15
47430;BME280;33181;49.246;7.372;2023-06-14T12:17:55;98580.97;;;26.48;31.91
47430;BME280;33181;49.246;7.372;2023-06-14T12:20:21;98588.22;;;26.47;31.38
47430;BME280;33181;49.246;7.372;2023-06-14T12:22:55;98585.34;;;25.88;31.22
47430;BME280;33181;49.246;7.372;2023-06-14T12:25:31;98573.56;;;26.01;31.65
47430;BME280;33181;49.246;7.372;2023-06-14T12:28:06;98580.97;;;26.06;31.80
47430;BME280;33181;49.246;7.372;2023-06-14T12:30:36;98578.97;;;26.13;31.68
47430;BME280;33181;49.246;7.372;2023-06-14T12:33:06;98572.59;;;25.77;30.78
47430;BME280;33181;49.246;7.372;2023-06-14T12:35:33;98572.66;;;26.07;31.08
47430;BME280;33181;49.246;7.372;2023-06-14T12:37:58;98567.09;;;26.21;31.28
47430;BME280;33181;49.246;7.372;2023-06-14T12:40:24;98573.28;;;26.21;32.15
47430;BME280;33181;49.246;7.372;2023-06-14T12:42:50;98579.53;;;26.33;31.36
47430;BME280;33181;49.246;7.372;2023-06-14T12:45:16;98574.16;;;26.33;31.97
47430;BME280;33181;49.246;7.372;2023-06-14T12:47:43;98575.72;;;26.11;31.61
47430;BME280;33181;49.246;7.372;2023-06-14T12:50:09;98582.09;;;26.58;31.15
47430;BME280;33181;49.246;7.372;2023-06-14T12:52:35;98576.13;;;27.03;30.65
47430;BME280;33181;49.246;7.372;2023-06-14T12:55:05;98579.91;;;27.38;29.94
47430;BME280;33181;49.246;7.372;2023-06-14T12:57:32;98583.50;;;27.55;30.13
47430;BME280;33181;49.246;7.372;2023-06-14T13:00:00;98578.38;;;27.07;29.26
47430;BME280;33181;49.246;7.372;2023-06-14T13:02:26;98586.34;;;27.13;30.07
47430;BME280;33181;49.246;7.372;2023-06-14T13:04:52;98589.75;;;27.09;29.40
47430;BME280;33181;49.246;7.372;2023-06-14T13:07:18;98586.44;;;26.41;29.75
47430;BME280;33181;49.246;7.372;2023-06-14T13:09:44;98590.88;;;26.66;30.33
47430;BME280;33181;49.246;7.372;2023-06-14T13:12:12;98588.50;;;26.57;29.22
47430;BME280;33181;49.246;7.372;2023-06-14T13:14:40;98596.06;;;26.67;29.58
47430;BME280;33181;49.246;7.372;2023-06-14T13:17:10;98594.03;;;26.63;29.38
47430;BME280;33181;49.246;7.372;2023-06-14T13:19:36;98595.50;;;26.47;30.04
47430;BME280;33181;49.246;7.372;2023-06-14T13:22:02;98602.97;;;26.45;29.49
47430;BME280;33181;49.246;7.372;2023-06-14T13:24:29;98597.13;;;26.78;29.30